sensor_id;sensor_type;location;lat;lon;timestamp;temperature;humidity
2054;DHT22;1032;52.542;13.440;2023-03-20T00:00:58;13.60;99.90
2054;DHT22;1032;52.542;13.440;2023-03-20T00:03:25;13.60;99.90
2054;DHT22;1032;52.542;13.440;2023-03-20T00:05:52;14.00;99.90
2054;DHT22;1032;52.542;13.440;2023-03-20T00:08:18;13.00;99.90
2054;DHT22;1032;52.542;13.440;2023-03-20T00:10:46;14.00;99.90
2054;DHT22;1032;52.542;13.440;2023-03-20T00:13:16;13.80;99.90
2054;DHT22;1032;52.542;13.440;2023-03-20T00:15:44;13.70;99.90
2054;DHT22;1032;52.542;13.440;2023-03-20T00:18:15;13.60;99.90
2054;DHT22;1032;52.542;13.440;2023-03-20T00:20:43;13.80;99.90
2054;DHT22;1032;52.542;13.440;2023-03-20T00:23:10;13.40;99.90
2054;DHT22;1032;52.542;13.440;2023-03-20T00:25:37;13.70;99.90
2054;DHT22;1032;52.542;13.440;2023-03-20T00:28:27;13.50;99.90
2054;DHT22;1032;52.542;13.440;2023-03-20T00:30:55;13.30;99.90
2054;DHT22;1032;52.542;13.440;2023-03-20T00:33:23;13.20;99.90
2054;DHT22;1032;52.542;13.440;2023-03-20T00:35:51;12.70;99.90
2054;DHT22;1032;52.542;13.440;2023-03-20T00:38:18;13.10;99.90
2054;DHT22;1032;52.542;13.440;2023-03-20T00:40:44;12.60;99.90
2054;DHT22;1032;52.542;13.440;2023-03-20T00:43:12;13.10;99.90
2054;DHT22;1032;52.542;13.440;2023-03-20T00:45:40;13.20;99.90
2054;DHT22;1032;52.542;13.440;2023-03-20T00:48:12;12.90;99.90
2054;DHT22;1032;52.542;13.440;2023-03-20T00:50:41;13.30;99.90
2054;DHT22;1032;52.542;13.440;2023-03-20T00:53:09;12.70;99.90
2054;DHT22;1032;52.542;13.440;2023-03-20T00:55:36;12.40;99.90
2054;DHT22;1032;52.542;13.440;2023-03-20T00:58:05;12.80;99.90
2054;DHT22;1032;52.542;13.440;2023-03-20T01:00:37;12.60;99.90
2054;DHT22;1032;52.542;13.440;2023-03-20T01:03:12;12.50;99.90
2054;DHT22;1032;52.542;13.440;2023-03-20T01:05:42;12.90;99.90
2054;DHT22;1032;52.542;13.440;2023-03-20T01:08:12;12.50;99.90
2054;DHT22;1032;52.542;13.440;2023-03-20T01:10:39;12.60;99.90
2054;DHT22;1032;52.542;13.440;2023-03-20T01:13:17;12.50;99.90
2054;DHT22;1032;52.542;13.440;2023-03-20T01:15:45;12.40;99.90
2054;DHT22;1032;52.542;13.440;2023-03-20T01:18:13;12.00;99.90
2054;DHT22;1032;52.542;13.440;2023-03-20T01:20:41;12.60;99.90
2054;DHT22;1032;52.542;13.440;2023-03-20T01:23:08;12.50;99.90
2054;DHT22;1032;52.542;13.440;2023-03-20T01:25:36;12.20;99.90
2054;DHT22;1032;52.542;13.440;2023-03-20T01:28:12;12.30;99.90
2054;DHT22;1032;52.542;13.440;2023-03-20T01:30:39;12.30;99.90
2054;DHT22;1032;52.542;13.440;2023-03-20T01:33:12;12.30;99.90
2054;DHT22;1032;52.542;13.440;2023-03-20T01:35:40;12.20;99.90
2054;DHT22;1032;52.542;13.440;2023-03-20T01:38:12;11.80;99.90
2054;DHT22;1032;52.542;13.440;2023-03-20T01:40:46;12.00;99.90
2054;DHT22;1032;52.542;13.440;2023-03-20T01:43:17;12.20;99.90
2054;DHT22;1032;52.542;13.440;2023-03-20T01:45:54;11.60;99.90
2054;DHT22;1032;52.542;13.440;2023-03-20T01:48:24;12.20;99.90
2054;DHT22;1032;52.542;13.440;2023-03-20T01:50:53;12.10;99.90
2054;DHT22;1032;52.542;13.440;2023-03-20T01:53:26;12.00;99.90
2054;DHT22;1032;52.542;13.440;2023-03-20T01:55:59;11.70;99.90
2054;DHT22;1032;52.542;13.440;2023-03-20T01:58:37;11.80;99.90
2054;DHT22;1032;52.542;13.440;2023-03-20T02:01:08;12.10;99.90
2054;DHT22;1032;52.542;13.440;2023-03-20T02:03:37;12.30;99.90
2054;DHT22;1032;52.542;13.440;2023-03-20T02:06:16;12.20;99.90
2054;DHT22;1032;52.542;13.440;2023-03-20T02:09:02;12.30;99.90
2054;DHT22;1032;52.542;13.440;2023-03-20T02:11:36;12.20;99.90
2054;DHT22;1032;52.542;13.440;2023-03-20T02:14:04;12.00;99.90
2054;DHT22;1032;52.542;13.440;2023-03-20T02:16:39;12.40;99.90
2054;DHT22;1032;52.542;13.440;2023-03-20T02:19:16;12.30;99.90
2054;DHT22;1032;52.542;13.440;2023-03-20T02:22:13;12.20;99.90
2054;DHT22;1032;52.542;13.440;2023-03-20T02:27:48;12.00;99.90
2054;DHT22;1032;52.542;13.440;2023-03-20T02:30:42;12.10;99.90
2054;DHT22;1032;52.542;13.440;2023-03-20T02:33:38;12.10;99.90
2054;DHT22;1032;52.542;13.440;2023-03-20T02:39:44;12.10;99.90
2054;DHT22;1032;52.542;13.440;2023-03-20T02:42:17;12.30;99.90
2054;DHT22;1032;52.542;13.440;2023-03-20T02:44:54;11.70;99.90
2054;DHT22;1032;52.542;13.440;2023-03-20T02:47:29;12.10;99.90
2054;DHT22;1032;52.542;13.440;2023-03-20T02:50:05;12.00;99.90
2054;DHT22;1032;52.542;13.440;2023-03-20T02:52:42;12.60;99.90
2054;DHT22;1032;52.542;13.440;2023-03-20T02:55:15;12.00;99.90
2054;DHT22;1032;52.542;13.440;2023-03-20T02:57:50;12.10;99.90
2054;DHT22;1032;52.542;13.440;2023-03-20T03:00:27;12.20;99.90
2054;DHT22;1032;52.542;13.440;2023-03-20T03:03:03;12.00;99.90
2054;DHT22;1032;52.542;13.440;2023-03-20T03:05:35;12.20;99.90
2054;DHT22;1032;52.542;13.440;2023-03-20T03:08:05;11.90;99.90
2054;DHT22;1032;52.542;13.440;2023-03-20T03:10:37;12.00;99.90
2054;DHT22;1032;52.542;13.440;2023-03-20T03:13:10;12.10;99.90
2054;DHT22;1032;52.542;13.440;2023-03-20T03:15:40;11.90;99.90
2054;DHT22;1032;52.542;13.440;2023-03-20T03:18:11;11.90;99.90
2054;DHT22;1032;52.542;13.440;2023-03-20T03:20:39;12.70;99.90
2054;DHT22;1032;52.542;13.440;2023-03-20T03:23:06;12.50;99.90
2054;DHT22;1032;52.542;13.440;2023-03-20T03:25:37;12.40;99.90
2054;DHT22;1032;52.542;13.440;2023-03-20T03:28:07;12.70;99.90
2054;DHT22;1032;52.542;13.440;2023-03-20T03:30:42;12.50;99.90
2054;DHT22;1032;52.542;13.440;2023-03-20T03:33:13;12.70;99.90
2054;DHT22;1032;52.542;13.440;2023-03-20T03:35:42;12.30;99.90
2054;DHT22;1032;52.542;13.440;2023-03-20T03:38:21;12.60;99.90
2054;DHT22;1032;52.542;13.440;2023-03-20T03:40:58;11.80;99.90
2054;DHT22;1032;52.542;13.440;2023-03-20T03:43:31;12.40;99.90
2054;DHT22;1032;52.542;13.440;2023-03-20T03:46:01;12.60;99.90
2054;DHT22;1032;52.542;13.440;2023-03-20T03:48:33;12.30;99.90
2054;DHT22;1032;52.542;13.440;2023-03-20T03:51:03;12.40;99.90
2054;DHT22;1032;52.542;13.440;2023-03-20T03:53:35;12.30;99.90
2054;DHT22;1032;52.542;13.440;2023-03-20T03:56:10;12.30;99.90
2054;DHT22;1032;52.542;13.440;2023-03-20T03:58:40;12.30;99.90
2054;DHT22;1032;52.542;13.440;2023-03-20T04:01:09;12.10;99.90
2054;DHT22;1032;52.542;13.440;2023-03-20T04:03:41;12.50;99.90
2054;DHT22;1032;52.542;13.440;2023-03-20T04:06:10;12.20;99.90
2054;DHT22;1032;52.542;13.440;2023-03-20T04:08:39;12.10;99.90
2054;DHT22;1032;52.542;13.440;2023-03-20T04:11:08;12.20;99.90
2054;DHT22;1032;52.542;13.440;2023-03-20T04:13:39;12.20;99.90
2054;DHT22;1032;52.542;13.440;2023-03-20T04:16:10;12.30;99.90
2054;DHT22;1032;52.542;13.440;2023-03-20T04:18:37;12.30;99.90
2054;DHT22;1032;52.542;13.440;2023-03-20T04:21:04;12.10;99.90
2054;DHT22;1032;52.542;13.440;2023-03-20T04:23:31;12.20;99.90
2054;DHT22;1032;52.542;13.440;2023-03-20T04:25:58;11.90;99.90
2054;DHT22;1032;52.542;13.440;2023-03-20T04:28:29;11.80;99.90
2054;DHT22;1032;52.542;13.440;2023-03-20T04:31:10;11.90;99.90
2054;DHT22;1032;52.542;13.440;2023-03-20T04:33:48;12.40;99.90
2054;DHT22;1032;52.542;13.440;2023-03-20T04:36:47;12.00;99.90
2054;DHT22;1032;52.542;13.440;2023-03-20T04:39:16;11.80;99.90
2054;DHT22;1032;52.542;13.440;2023-03-20T04:41:42;12.20;99.90
2054;DHT22;1032;52.542;13.440;2023-03-20T04:44:10;11.90;99.90
2054;DHT22;1032;52.542;13.440;2023-03-20T04:46:38;11.80;99.90
2054;DHT22;1032;52.542;13.440;2023-03-20T04:49:13;11.40;99.90
2054;DHT22;1032;52.542;13.440;2023-03-20T04:51:40;12.60;99.90
2054;DHT22;1032;52.542;13.440;2023-03-20T04:54:07;11.80;99.90
2054;DHT22;1032;52.542;13.440;2023-03-20T04:56:33;11.50;99.90
2054;DHT22;1032;52.542;13.440;2023-03-20T04:59:13;12.10;99.90
2054;DHT22;1032;52.542;13.440;2023-03-20T05:01:40;12.00;99.90
2054;DHT22;1032;52.542;13.440;2023-03-20T05:04:07;11.70;99.90
2054;DHT22;1032;52.542;13.440;2023-03-20T05:06:34;12.00;99.90
2054;DHT22;1032;52.542;13.440;2023-03-20T05:09:01;11.90;99.90
2054;DHT22;1032;52.542;13.440;2023-03-20T05:11:30;11.90;99.90
2054;DHT22;1032;52.542;13.440;2023-03-20T05:14:18;12.10;99.90
2054;DHT22;1032;52.542;13.440;2023-03-20T05:17:03;12.00;99.90
2054;DHT22;1032;52.542;13.440;2023-03-20T05:19:49;12.00;99.90
2054;DHT22;1032;52.542;13.440;2023-03-20T05:22:25;12.00;99.90
2054;DHT22;1032;52.542;13.440;2023-03-20T05:25:12;11.80;99.90
2054;DHT22;1032;52.542;13.440;2023-03-20T05:27:54;11.90;99.90
2054;DHT22;1032;52.542;13.440;2023-03-20T05:30:22;11.80;99.90
2054;DHT22;1032;52.542;13.440;2023-03-20T05:33:09;11.90;99.90
2054;DHT22;1032;52.542;13.440;2023-03-20T05:35:49;12.30;99.90
2054;DHT22;1032;52.542;13.440;2023-03-20T05:38:30;12.10;99.90
2054;DHT22;1032;52.542;13.440;2023-03-20T05:41:24;12.30;99.90
2054;DHT22;1032;52.542;13.440;2023-03-20T05:44:04;11.90;99.90
2054;DHT22;1032;52.542;13.440;2023-03-20T05:47:02;12.20;99.90
2054;DHT22;1032;52.542;13.440;2023-03-20T05:49:48;11.80;99.90
2054;DHT22;1032;52.542;13.440;2023-03-20T05:52:41;11.90;99.90
2054;DHT22;1032;52.542;13.440;2023-03-20T05:55:20;12.00;99.90
2054;DHT22;1032;52.542;13.440;2023-03-20T05:58:10;12.20;99.90
2054;DHT22;1032;52.542;13.440;2023-03-20T06:01:02;11.70;99.90
2054;DHT22;1032;52.542;13.440;2023-03-20T06:04:02;12.10;99.90
2054;DHT22;1032;52.542;13.440;2023-03-20T06:06:54;12.10;99.90
2054;DHT22;1032;52.542;13.440;2023-03-20T06:09:21;12.00;99.90
2054;DHT22;1032;52.542;13.440;2023-03-20T06:11:48;11.50;99.90
2054;DHT22;1032;52.542;13.440;2023-03-20T06:14:16;12.00;99.90
2054;DHT22;1032;52.542;13.440;2023-03-20T06:16:49;12.00;99.90
2054;DHT22;1032;52.542;13.440;2023-03-20T06:19:17;12.30;99.90
2054;DHT22;1032;52.542;13.440;2023-03-20T06:21:44;12.20;99.90
2054;DHT22;1032;52.542;13.440;2023-03-20T06:24:14;12.00;99.90
2054;DHT22;1032;52.542;13.440;2023-03-20T06:26:41;12.00;99.90
2054;DHT22;1032;52.542;13.440;2023-03-20T06:29:10;12.10;99.90
2054;DHT22;1032;52.542;13.440;2023-03-20T06:31:37;12.20;99.90
2054;DHT22;1032;52.542;13.440;2023-03-20T06:34:05;12.40;99.90
2054;DHT22;1032;52.542;13.440;2023-03-20T06:36:38;12.10;99.90
2054;DHT22;1032;52.542;13.440;2023-03-20T06:39:12;12.20;99.90
2054;DHT22;1032;52.542;13.440;2023-03-20T06:41:39;12.10;99.90
2054;DHT22;1032;52.542;13.440;2023-03-20T06:44:08;12.30;99.90
2054;DHT22;1032;52.542;13.440;2023-03-20T06:46:53;11.40;99.90
2054;DHT22;1032;52.542;13.440;2023-03-20T06:49:20;11.30;99.90
2054;DHT22;1032;52.542;13.440;2023-03-20T06:51:48;11.80;99.90
2054;DHT22;1032;52.542;13.440;2023-03-20T06:54:22;11.70;99.90
2054;DHT22;1032;52.542;13.440;2023-03-20T06:56:50;11.80;99.90
2054;DHT22;1032;52.542;13.440;2023-03-20T06:59:17;11.80;99.90
2054;DHT22;1032;52.542;13.440;2023-03-20T07:01:43;11.60;99.90
2054;DHT22;1032;52.542;13.440;2023-03-20T07:04:11;11.40;99.90
2054;DHT22;1032;52.542;13.440;2023-03-20T07:06:48;11.70;99.90
2054;DHT22;1032;52.542;13.440;2023-03-20T07:09:15;11.60;99.90
2054;DHT22;1032;52.542;13.440;2023-03-20T07:11:43;11.40;99.90
2054;DHT22;1032;52.542;13.440;2023-03-20T07:14:10;11.60;99.90
2054;DHT22;1032;52.542;13.440;2023-03-20T07:16:48;11.50;99.90
2054;DHT22;1032;52.542;13.440;2023-03-20T07:19:15;11.30;99.90
2054;DHT22;1032;52.542;13.440;2023-03-20T07:21:45;12.20;99.90
2054;DHT22;1032;52.542;13.440;2023-03-20T07:24:14;11.80;99.90
2054;DHT22;1032;52.542;13.440;2023-03-20T07:26:41;11.50;99.90
2054;DHT22;1032;52.542;13.440;2023-03-20T07:29:08;11.90;99.90
2054;DHT22;1032;52.542;13.440;2023-03-20T07:31:36;11.10;99.90
2054;DHT22;1032;52.542;13.440;2023-03-20T07:34:09;11.90;99.90
2054;DHT22;1032;52.542;13.440;2023-03-20T07:36:36;11.60;99.90
2054;DHT22;1032;52.542;13.440;2023-03-20T07:39:03;11.80;99.90
2054;DHT22;1032;52.542;13.440;2023-03-20T07:41:32;11.50;99.90
2054;DHT22;1032;52.542;13.440;2023-03-20T07:44:03;11.60;99.90
2054;DHT22;1032;52.542;13.440;2023-03-20T07:46:46;11.30;99.90
2054;DHT22;1032;52.542;13.440;2023-03-20T07:49:14;11.80;99.90
2054;DHT22;1032;52.542;13.440;2023-03-20T07:51:44;11.30;99.90
2054;DHT22;1032;52.542;13.440;2023-03-20T07:54:10;10.70;99.90
2054;DHT22;1032;52.542;13.440;2023-03-20T07:56:38;11.30;99.90
2054;DHT22;1032;52.542;13.440;2023-03-20T07:59:05;11.30;99.90
2054;DHT22;1032;52.542;13.440;2023-03-20T08:01:32;11.20;99.90
2054;DHT22;1032;52.542;13.440;2023-03-20T08:03:59;11.50;99.90
2054;DHT22;1032;52.542;13.440;2023-03-20T08:06:25;11.00;99.90
2054;DHT22;1032;52.542;13.440;2023-03-20T08:08:52;11.40;99.90
2054;DHT22;1032;52.542;13.440;2023-03-20T08:11:19;11.70;99.90
2054;DHT22;1032;52.542;13.440;2023-03-20T08:13:47;11.70;99.90
2054;DHT22;1032;52.542;13.440;2023-03-20T08:16:13;11.60;99.90
2054;DHT22;1032;52.542;13.440;2023-03-20T08:18:40;11.60;99.90
2054;DHT22;1032;52.542;13.440;2023-03-20T08:21:07;12.30;99.90
2054;DHT22;1032;52.542;13.440;2023-03-20T08:23:34;12.00;99.90
2054;DHT22;1032;52.542;13.440;2023-03-20T08:26:01;12.30;99.90
2054;DHT22;1032;52.542;13.440;2023-03-20T08:28:28;11.90;99.90
2054;DHT22;1032;52.542;13.440;2023-03-20T08:30:56;11.90;99.90
2054;DHT22;1032;52.542;13.440;2023-03-20T08:33:22;12.20;99.90
2054;DHT22;1032;52.542;13.440;2023-03-20T08:35:56;12.00;99.90
2054;DHT22;1032;52.542;13.440;2023-03-20T08:38:23;12.00;99.90
2054;DHT22;1032;52.542;13.440;2023-03-20T08:40:50;11.70;99.90
2054;DHT22;1032;52.542;13.440;2023-03-20T08:43:17;11.70;99.90
2054;DHT22;1032;52.542;13.440;2023-03-20T08:45:44;11.70;99.90
2054;DHT22;1032;52.542;13.440;2023-03-20T08:48:12;12.30;99.90
2054;DHT22;1032;52.542;13.440;2023-03-20T08:50:39;12.20;99.90
2054;DHT22;1032;52.542;13.440;2023-03-20T08:53:05;12.70;99.90
2054;DHT22;1032;52.542;13.440;2023-03-20T08:55:32;12.60;99.90
2054;DHT22;1032;52.542;13.440;2023-03-20T08:57:59;12.50;99.90
2054;DHT22;1032;52.542;13.440;2023-03-20T09:00:26;13.00;99.90
2054;DHT22;1032;52.542;13.440;2023-03-20T09:02:53;13.00;99.90
2054;DHT22;1032;52.542;13.440;2023-03-20T09:05:21;13.20;99.90
2054;DHT22;1032;52.542;13.440;2023-03-20T09:07:48;13.20;99.90
2054;DHT22;1032;52.542;13.440;2023-03-20T09:10:18;13.40;99.90
2054;DHT22;1032;52.542;13.440;2023-03-20T09:12:44;13.60;99.90
2054;DHT22;1032;52.542;13.440;2023-03-20T09:15:11;14.20;99.90
2054;DHT22;1032;52.542;13.440;2023-03-20T09:17:38;13.40;99.90
2054;DHT22;1032;52.542;13.440;2023-03-20T09:20:05;13.90;99.90
2054;DHT22;1032;52.542;13.440;2023-03-20T09:22:34;14.10;99.90
2054;DHT22;1032;52.542;13.440;2023-03-20T09:25:00;14.40;99.90
2054;DHT22;1032;52.542;13.440;2023-03-20T09:27:27;14.70;99.90
2054;DHT22;1032;52.542;13.440;2023-03-20T09:29:54;14.10;99.90
2054;DHT22;1032;52.542;13.440;2023-03-20T09:32:20;15.10;99.90
2054;DHT22;1032;52.542;13.440;2023-03-20T09:34:47;14.60;99.90
2054;DHT22;1032;52.542;13.440;2023-03-20T09:37:13;14.50;99.90
2054;DHT22;1032;52.542;13.440;2023-03-20T09:39:41;14.30;99.90
2054;DHT22;1032;52.542;13.440;2023-03-20T09:42:20;14.80;99.90
2054;DHT22;1032;52.542;13.440;2023-03-20T09:44:56;14.50;99.90
2054;DHT22;1032;52.542;13.440;2023-03-20T09:47:32;14.40;99.90
2054;DHT22;1032;52.542;13.440;2023-03-20T09:50:11;14.60;99.90
2054;DHT22;1032;52.542;13.440;2023-03-20T09:52:41;14.60;99.90
2054;DHT22;1032;52.542;13.440;2023-03-20T09:55:15;14.90;99.90
2054;DHT22;1032;52.542;13.440;2023-03-20T09:57:45;14.60;99.90
2054;DHT22;1032;52.542;13.440;2023-03-20T10:00:16;14.30;99.90
2054;DHT22;1032;52.542;13.440;2023-03-20T10:02:47;14.40;99.90
2054;DHT22;1032;52.542;13.440;2023-03-20T10:05:20;14.20;99.90
2054;DHT22;1032;52.542;13.440;2023-03-20T10:07:48;14.00;99.90
2054;DHT22;1032;52.542;13.440;2023-03-20T10:10:17;14.50;99.90
2054;DHT22;1032;52.542;13.440;2023-03-20T10:12:50;14.30;99.90
2054;DHT22;1032;52.542;13.440;2023-03-20T10:15:33;14.20;99.90
2054;DHT22;1032;52.542;13.440;2023-03-20T10:18:06;14.30;99.90
2054;DHT22;1032;52.542;13.440;2023-03-20T10:20:41;14.40;99.90
2054;DHT22;1032;52.542;13.440;2023-03-20T10:23:17;14.20;99.90
2054;DHT22;1032;52.542;13.440;2023-03-20T10:25:50;14.10;99.90
2054;DHT22;1032;52.542;13.440;2023-03-20T10:28:21;14.50;99.90
2054;DHT22;1032;52.542;13.440;2023-03-20T10:30:57;14.50;99.90
2054;DHT22;1032;52.542;13.440;2023-03-20T10:33:37;14.40;99.90
2054;DHT22;1032;52.542;13.440;2023-03-20T10:36:17;14.40;99.90
2054;DHT22;1032;52.542;13.440;2023-03-20T10:38:54;14.30;99.90
2054;DHT22;1032;52.542;13.440;2023-03-20T10:41:27;14.40;99.90
2054;DHT22;1032;52.542;13.440;2023-03-20T10:43:55;14.40;99.90
2054;DHT22;1032;52.542;13.440;2023-03-20T10:46:25;14.30;99.90
2054;DHT22;1032;52.542;13.440;2023-03-20T10:48:57;14.40;99.90
2054;DHT22;1032;52.542;13.440;2023-03-20T10:51:35;14.70;99.90
2054;DHT22;1032;52.542;13.440;2023-03-20T10:54:19;14.40;99.90
2054;DHT22;1032;52.542;13.440;2023-03-20T10:56:48;14.50;99.90
2054;DHT22;1032;52.542;13.440;2023-03-20T10:59:21;14.20;99.90
2054;DHT22;1032;52.542;13.440;2023-03-20T11:01:48;14.60;99.90
2054;DHT22;1032;52.542;13.440;2023-03-20T11:04:15;14.60;99.90
2054;DHT22;1032;52.542;13.440;2023-03-20T11:06:47;14.70;99.90
2054;DHT22;1032;52.542;13.440;2023-03-20T11:09:19;15.10;99.90
2054;DHT22;1032;52.542;13.440;2023-03-20T11:11:49;15.60;99.90
2054;DHT22;1032;52.542;13.440;2023-03-20T11:14:18;15.40;99.90
2054;DHT22;1032;52.542;13.440;2023-03-20T11:16:47;14.90;99.90
2054;DHT22;1032;52.542;13.440;2023-03-20T11:19:14;15.00;99.90
2054;DHT22;1032;52.542;13.440;2023-03-20T11:21:47;15.00;99.90
2054;DHT22;1032;52.542;13.440;2023-03-20T11:24:25;15.30;99.90
2054;DHT22;1032;52.542;13.440;2023-03-20T11:26:54;15.00;99.90
2054;DHT22;1032;52.542;13.440;2023-03-20T11:29:30;15.20;99.90
2054;DHT22;1032;52.542;13.440;2023-03-20T11:32:04;15.10;99.90
2054;DHT22;1032;52.542;13.440;2023-03-20T11:34:36;14.90;99.90
2054;DHT22;1032;52.542;13.440;2023-03-20T11:37:12;14.30;99.80
2054;DHT22;1032;52.542;13.440;2023-03-20T11:39:55;14.60;99.90
2054;DHT22;1032;52.542;13.440;2023-03-20T11:42:25;14.80;99.90
2054;DHT22;1032;52.542;13.440;2023-03-20T11:44:57;15.10;99.90
2054;DHT22;1032;52.542;13.440;2023-03-20T11:47:26;14.60;99.90
2054;DHT22;1032;52.542;13.440;2023-03-20T11:49:54;14.40;99.90
2054;DHT22;1032;52.542;13.440;2023-03-20T11:52:24;14.30;99.90
2054;DHT22;1032;52.542;13.440;2023-03-20T11:54:55;15.20;99.90
2054;DHT22;1032;52.542;13.440;2023-03-20T11:57:31;15.10;99.90
2054;DHT22;1032;52.542;13.440;2023-03-20T12:00:01;14.70;99.90
2054;DHT22;1032;52.542;13.440;2023-03-20T12:02:30;14.50;99.90
2054;DHT22;1032;52.542;13.440;2023-03-20T12:04:58;15.40;99.90
2054;DHT22;1032;52.542;13.440;2023-03-20T12:07:28;15.00;99.80
2054;DHT22;1032;52.542;13.440;2023-03-20T12:09:57;14.80;99.60
2054;DHT22;1032;52.542;13.440;2023-03-20T12:12:35;14.70;99.70
2054;DHT22;1032;52.542;13.440;2023-03-20T12:15:13;15.10;99.80
2054;DHT22;1032;52.542;13.440;2023-03-20T12:17:47;14.90;99.80
2054;DHT22;1032;52.542;13.440;2023-03-20T12:20:27;14.90;99.90
2054;DHT22;1032;52.542;13.440;2023-03-20T12:23:01;15.00;99.90
2054;DHT22;1032;52.542;13.440;2023-03-20T12:25:35;14.90;99.90
2054;DHT22;1032;52.542;13.440;2023-03-20T12:28:07;14.70;99.80
2054;DHT22;1032;52.542;13.440;2023-03-20T12:30:50;14.90;99.10
2054;DHT22;1032;52.542;13.440;2023-03-20T12:33:30;14.90;98.80
2054;DHT22;1032;52.542;13.440;2023-03-20T12:36:01;14.90;99.30
2054;DHT22;1032;52.542;13.440;2023-03-20T12:38:30;15.00;99.30
2054;DHT22;1032;52.542;13.440;2023-03-20T12:41:06;15.00;99.60
2054;DHT22;1032;52.542;13.440;2023-03-20T12:46:30;14.60;99.00
2054;DHT22;1032;52.542;13.440;2023-03-20T12:49:07;14.50;99.10
2054;DHT22;1032;52.542;13.440;2023-03-20T12:51:45;15.00;99.30
2054;DHT22;1032;52.542;13.440;2023-03-20T12:54:27;14.80;99.30
2054;DHT22;1032;52.542;13.440;2023-03-20T12:57:06;14.70;99.20
2054;DHT22;1032;52.542;13.440;2023-03-20T12:59:44;14.70;99.20
2054;DHT22;1032;52.542;13.440;2023-03-20T13:02:29;14.70;99.30
2054;DHT22;1032;52.542;13.440;2023-03-20T13:05:05;14.40;99.30
2054;DHT22;1032;52.542;13.440;2023-03-20T13:07:45;14.70;99.50
2054;DHT22;1032;52.542;13.440;2023-03-20T13:10:19;14.70;99.50
2054;DHT22;1032;52.542;13.440;2023-03-20T13:12:53;14.60;99.40
2054;DHT22;1032;52.542;13.440;2023-03-20T13:15:33;15.00;99.20
2054;DHT22;1032;52.542;13.440;2023-03-20T13:18:05;15.10;99.20
2054;DHT22;1032;52.542;13.440;2023-03-20T13:20:39;15.50;99.00
2054;DHT22;1032;52.542;13.440;2023-03-20T13:23:16;15.60;98.40
2054;DHT22;1032;52.542;13.440;2023-03-20T13:26:07;15.00;98.30
2054;DHT22;1032;52.542;13.440;2023-03-20T13:28:42;15.40;98.90
2054;DHT22;1032;52.542;13.440;2023-03-20T13:31:23;15.70;98.40
2054;DHT22;1032;52.542;13.440;2023-03-20T13:33:56;15.70;97.90
2054;DHT22;1032;52.542;13.440;2023-03-20T13:36:48;15.40;98.10
2054;DHT22;1032;52.542;13.440;2023-03-20T13:39:18;15.40;98.50
2054;DHT22;1032;52.542;13.440;2023-03-20T13:41:48;15.20;98.70
2054;DHT22;1032;52.542;13.440;2023-03-20T13:44:17;15.20;98.80
2054;DHT22;1032;52.542;13.440;2023-03-20T13:46:50;15.30;99.00
2054;DHT22;1032;52.542;13.440;2023-03-20T13:49:21;15.10;99.30
2054;DHT22;1032;52.542;13.440;2023-03-20T13:51:54;15.10;99.10
2054;DHT22;1032;52.542;13.440;2023-03-20T13:54:36;15.00;99.20
2054;DHT22;1032;52.542;13.440;2023-03-20T13:57:13;14.70;99.10
2054;DHT22;1032;52.542;13.440;2023-03-20T13:59:52;15.10;99.10
2054;DHT22;1032;52.542;13.440;2023-03-20T14:02:30;15.50;98.80
2054;DHT22;1032;52.542;13.440;2023-03-20T14:05:03;15.60;99.10
2054;DHT22;1032;52.542;13.440;2023-03-20T14:07:32;14.60;98.70
2054;DHT22;1032;52.542;13.440;2023-03-20T14:10:33;15.80;99.40
2054;DHT22;1032;52.542;13.440;2023-03-20T14:13:04;15.20;99.10
2054;DHT22;1032;52.542;13.440;2023-03-20T14:15:33;14.90;98.10
2054;DHT22;1032;52.542;13.440;2023-03-20T14:18:05;15.10;98.50
2054;DHT22;1032;52.542;13.440;2023-03-20T14:20:34;15.00;98.70
2054;DHT22;1032;52.542;13.440;2023-03-20T14:23:02;15.10;99.10
2054;DHT22;1032;52.542;13.440;2023-03-20T14:25:34;15.00;99.30
2054;DHT22;1032;52.542;13.440;2023-03-20T14:28:07;14.80;99.30
2054;DHT22;1032;52.542;13.440;2023-03-20T14:30:41;14.80;99.50
2054;DHT22;1032;52.542;13.440;2023-03-20T14:33:24;14.80;99.60
2054;DHT22;1032;52.542;13.440;2023-03-20T14:36:10;14.60;99.70
2054;DHT22;1032;52.542;13.440;2023-03-20T14:38:38;14.70;99.80
2054;DHT22;1032;52.542;13.440;2023-03-20T14:41:14;14.30;99.80
2054;DHT22;1032;52.542;13.440;2023-03-20T14:43:54;14.20;99.90
2054;DHT22;1032;52.542;13.440;2023-03-20T14:46:26;14.80;99.90
2054;DHT22;1032;52.542;13.440;2023-03-20T14:49:01;14.70;99.90
2054;DHT22;1032;52.542;13.440;2023-03-20T14:51:36;14.40;99.90
2054;DHT22;1032;52.542;13.440;2023-03-20T14:54:23;14.30;99.90
2054;DHT22;1032;52.542;13.440;2023-03-20T14:56:51;14.30;99.90
2054;DHT22;1032;52.542;13.440;2023-03-20T14:59:19;14.00;99.90
2054;DHT22;1032;52.542;13.440;2023-03-20T15:01:47;14.30;99.90
2054;DHT22;1032;52.542;13.440;2023-03-20T15:04:27;14.50;99.90
2054;DHT22;1032;52.542;13.440;2023-03-20T15:06:57;14.10;99.90
2054;DHT22;1032;52.542;13.440;2023-03-20T15:09:26;13.90;99.90
2054;DHT22;1032;52.542;13.440;2023-03-20T15:11:56;14.10;99.90
2054;DHT22;1032;52.542;13.440;2023-03-20T15:14:32;14.20;99.90
2054;DHT22;1032;52.542;13.440;2023-03-20T15:17:01;14.30;99.90
2054;DHT22;1032;52.542;13.440;2023-03-20T15:19:29;14.40;99.90
2054;DHT22;1032;52.542;13.440;2023-03-20T15:21:57;13.90;99.90
2054;DHT22;1032;52.542;13.440;2023-03-20T15:24:26;13.80;99.90
2054;DHT22;1032;52.542;13.440;2023-03-20T15:26:56;14.20;99.90
2054;DHT22;1032;52.542;13.440;2023-03-20T15:29:24;13.90;99.90
2054;DHT22;1032;52.542;13.440;2023-03-20T15:31:54;14.30;99.90
2054;DHT22;1032;52.542;13.440;2023-03-20T15:34:23;13.70;99.90
2054;DHT22;1032;52.542;13.440;2023-03-20T15:36:54;14.00;99.90
2054;DHT22;1032;52.542;13.440;2023-03-20T15:39:23;13.60;99.90
2054;DHT22;1032;52.542;13.440;2023-03-20T15:41:52;13.80;99.90
2054;DHT22;1032;52.542;13.440;2023-03-20T15:44:21;14.20;99.90
2054;DHT22;1032;52.542;13.440;2023-03-20T15:46:55;13.80;99.90
2054;DHT22;1032;52.542;13.440;2023-03-20T15:49:23;14.10;99.90
2054;DHT22;1032;52.542;13.440;2023-03-20T15:51:52;14.20;99.90
2054;DHT22;1032;52.542;13.440;2023-03-20T15:54:19;13.80;99.90
2054;DHT22;1032;52.542;13.440;2023-03-20T15:56:49;14.30;99.90
2054;DHT22;1032;52.542;13.440;2023-03-20T15:59:18;13.90;99.90
2054;DHT22;1032;52.542;13.440;2023-03-20T16:01:48;13.90;99.90
2054;DHT22;1032;52.542;13.440;2023-03-20T16:04:17;13.70;99.90
2054;DHT22;1032;52.542;13.440;2023-03-20T16:06:46;14.10;99.90
2054;DHT22;1032;52.542;13.440;2023-03-20T16:09:15;14.10;99.90
2054;DHT22;1032;52.542;13.440;2023-03-20T16:11:44;13.90;99.90
2054;DHT22;1032;52.542;13.440;2023-03-20T16:14:15;14.30;99.90
2054;DHT22;1032;52.542;13.440;2023-03-20T16:16:43;14.10;99.90
2054;DHT22;1032;52.542;13.440;2023-03-20T16:19:12;13.80;99.90
2054;DHT22;1032;52.542;13.440;2023-03-20T16:21:43;14.00;99.90
2054;DHT22;1032;52.542;13.440;2023-03-20T16:24:18;14.30;99.90
2054;DHT22;1032;52.542;13.440;2023-03-20T16:26:50;13.80;99.90